sensor_id;sensor_type;location;lat;lon;timestamp;temperature;humidity
22471;DHT22;11402;51.374;6.594;2023-07-13T00:00:18;17.30;99.90
22471;DHT22;11402;51.374;6.594;2023-07-13T00:02:43;17.30;99.90
22471;DHT22;11402;51.374;6.594;2023-07-13T00:05:09;17.40;99.90
22471;DHT22;11402;51.374;6.594;2023-07-13T00:07:35;17.30;99.90
22471;DHT22;11402;51.374;6.594;2023-07-13T00:10:02;17.20;99.90
22471;DHT22;11402;51.374;6.594;2023-07-13T00:12:31;17.10;99.90
22471;DHT22;11402;51.374;6.594;2023-07-13T00:14:59;17.30;99.90
22471;DHT22;11402;51.374;6.594;2023-07-13T00:17:26;17.10;99.90
22471;DHT22;11402;51.374;6.594;2023-07-13T00:19:52;17.00;99.90
22471;DHT22;11402;51.374;6.594;2023-07-13T00:22:18;17.10;99.90
22471;DHT22;11402;51.374;6.594;2023-07-13T00:24:44;17.00;99.90
22471;DHT22;11402;51.374;6.594;2023-07-13T00:27:11;16.90;99.90
22471;DHT22;11402;51.374;6.594;2023-07-13T00:29:37;16.90;99.90
22471;DHT22;11402;51.374;6.594;2023-07-13T00:32:04;16.80;99.90
22471;DHT22;11402;51.374;6.594;2023-07-13T00:34:29;16.80;99.90
22471;DHT22;11402;51.374;6.594;2023-07-13T00:36:55;16.60;99.90
22471;DHT22;11402;51.374;6.594;2023-07-13T00:39:21;16.60;99.90
22471;DHT22;11402;51.374;6.594;2023-07-13T00:41:48;16.60;99.90
22471;DHT22;11402;51.374;6.594;2023-07-13T00:44:14;16.70;99.90
22471;DHT22;11402;51.374;6.594;2023-07-13T00:46:40;16.60;99.90
22471;DHT22;11402;51.374;6.594;2023-07-13T00:49:08;16.70;99.90
22471;DHT22;11402;51.374;6.594;2023-07-13T00:51:55;16.90;99.90
22471;DHT22;11402;51.374;6.594;2023-07-13T00:54:29;16.80;99.90
22471;DHT22;11402;51.374;6.594;2023-07-13T00:56:59;16.70;99.90
22471;DHT22;11402;51.374;6.594;2023-07-13T00:59:26;16.70;99.90
22471;DHT22;11402;51.374;6.594;2023-07-13T01:01:52;16.70;99.90
22471;DHT22;11402;51.374;6.594;2023-07-13T01:04:18;16.70;99.90
22471;DHT22;11402;51.374;6.594;2023-07-13T01:06:45;16.70;99.90
22471;DHT22;11402;51.374;6.594;2023-07-13T01:09:12;16.60;99.90
22471;DHT22;11402;51.374;6.594;2023-07-13T01:11:38;16.50;99.90
22471;DHT22;11402;51.374;6.594;2023-07-13T01:14:04;16.80;99.90
22471;DHT22;11402;51.374;6.594;2023-07-13T01:16:35;16.70;99.90
22471;DHT22;11402;51.374;6.594;2023-07-13T01:19:03;16.70;99.90
22471;DHT22;11402;51.374;6.594;2023-07-13T01:21:33;16.70;99.90
22471;DHT22;11402;51.374;6.594;2023-07-13T01:23:58;16.70;99.90
22471;DHT22;11402;51.374;6.594;2023-07-13T01:26:24;16.80;99.90
22471;DHT22;11402;51.374;6.594;2023-07-13T01:28:50;16.70;99.90
22471;DHT22;11402;51.374;6.594;2023-07-13T01:31:15;16.80;99.90
22471;DHT22;11402;51.374;6.594;2023-07-13T01:33:41;16.80;99.90
22471;DHT22;11402;51.374;6.594;2023-07-13T01:36:08;16.80;99.90
22471;DHT22;11402;51.374;6.594;2023-07-13T01:38:35;16.70;99.90
22471;DHT22;11402;51.374;6.594;2023-07-13T01:41:01;16.60;99.90
22471;DHT22;11402;51.374;6.594;2023-07-13T01:43:27;16.70;99.90
22471;DHT22;11402;51.374;6.594;2023-07-13T01:45:53;16.80;99.90
22471;DHT22;11402;51.374;6.594;2023-07-13T01:48:18;16.60;99.90
22471;DHT22;11402;51.374;6.594;2023-07-13T01:50:46;16.60;99.90
22471;DHT22;11402;51.374;6.594;2023-07-13T01:53:12;16.50;99.90
22471;DHT22;11402;51.374;6.594;2023-07-13T01:55:38;16.50;99.90
22471;DHT22;11402;51.374;6.594;2023-07-13T01:58:04;16.30;99.90
22471;DHT22;11402;51.374;6.594;2023-07-13T02:00:29;16.20;99.90
22471;DHT22;11402;51.374;6.594;2023-07-13T02:02:56;16.20;99.90
22471;DHT22;11402;51.374;6.594;2023-07-13T02:05:21;16.10;99.90
22471;DHT22;11402;51.374;6.594;2023-07-13T02:07:47;16.30;99.90
22471;DHT22;11402;51.374;6.594;2023-07-13T02:10:13;16.20;99.90
22471;DHT22;11402;51.374;6.594;2023-07-13T02:12:39;16.50;99.90
22471;DHT22;11402;51.374;6.594;2023-07-13T02:15:05;16.70;99.90
22471;DHT22;11402;51.374;6.594;2023-07-13T02:17:31;16.60;99.90
22471;DHT22;11402;51.374;6.594;2023-07-13T02:19:57;16.70;99.90
22471;DHT22;11402;51.374;6.594;2023-07-13T02:22:23;16.80;99.90
22471;DHT22;11402;51.374;6.594;2023-07-13T02:24:49;16.70;99.90
22471;DHT22;11402;51.374;6.594;2023-07-13T02:27:15;16.70;99.90
22471;DHT22;11402;51.374;6.594;2023-07-13T02:29:41;16.70;99.90
22471;DHT22;11402;51.374;6.594;2023-07-13T02:32:07;16.70;99.90
22471;DHT22;11402;51.374;6.594;2023-07-13T02:34:33;16.50;99.90
22471;DHT22;11402;51.374;6.594;2023-07-13T02:36:59;16.40;99.90
22471;DHT22;11402;51.374;6.594;2023-07-13T02:39:25;16.30;99.90
22471;DHT22;11402;51.374;6.594;2023-07-13T02:41:50;16.30;99.90
22471;DHT22;11402;51.374;6.594;2023-07-13T02:44:16;16.20;99.90
22471;DHT22;11402;51.374;6.594;2023-07-13T02:46:41;16.40;99.90
22471;DHT22;11402;51.374;6.594;2023-07-13T02:49:07;16.40;99.90
22471;DHT22;11402;51.374;6.594;2023-07-13T02:51:33;16.40;99.90
22471;DHT22;11402;51.374;6.594;2023-07-13T02:54:00;16.30;99.90
22471;DHT22;11402;51.374;6.594;2023-07-13T02:56:27;16.00;99.90
22471;DHT22;11402;51.374;6.594;2023-07-13T02:58:53;16.20;99.90
22471;DHT22;11402;51.374;6.594;2023-07-13T03:01:20;16.20;99.90
22471;DHT22;11402;51.374;6.594;2023-07-13T03:03:46;16.30;99.90
22471;DHT22;11402;51.374;6.594;2023-07-13T03:06:12;16.10;99.90
22471;DHT22;11402;51.374;6.594;2023-07-13T03:08:39;16.00;99.90
22471;DHT22;11402;51.374;6.594;2023-07-13T03:11:08;16.00;99.90
22471;DHT22;11402;51.374;6.594;2023-07-13T03:13:34;16.10;99.90
22471;DHT22;11402;51.374;6.594;2023-07-13T03:16:00;16.30;99.90
22471;DHT22;11402;51.374;6.594;2023-07-13T03:18:27;16.40;99.90
22471;DHT22;11402;51.374;6.594;2023-07-13T03:20:53;16.40;99.90
22471;DHT22;11402;51.374;6.594;2023-07-13T03:23:20;16.50;99.90
22471;DHT22;11402;51.374;6.594;2023-07-13T03:25:45;16.50;99.90
22471;DHT22;11402;51.374;6.594;2023-07-13T03:28:12;16.50;99.90
22471;DHT22;11402;51.374;6.594;2023-07-13T03:30:38;16.50;99.90
22471;DHT22;11402;51.374;6.594;2023-07-13T03:33:04;16.50;99.90
22471;DHT22;11402;51.374;6.594;2023-07-13T03:35:30;16.50;99.90
22471;DHT22;11402;51.374;6.594;2023-07-13T03:37:58;16.50;99.90
22471;DHT22;11402;51.374;6.594;2023-07-13T03:40:24;16.50;99.90
22471;DHT22;11402;51.374;6.594;2023-07-13T03:42:51;16.40;99.90
22471;DHT22;11402;51.374;6.594;2023-07-13T03:45:16;16.40;99.90
22471;DHT22;11402;51.374;6.594;2023-07-13T03:47:42;16.40;99.90
22471;DHT22;11402;51.374;6.594;2023-07-13T03:50:08;16.50;99.90
22471;DHT22;11402;51.374;6.594;2023-07-13T03:52:34;16.40;99.90
22471;DHT22;11402;51.374;6.594;2023-07-13T03:54:59;16.50;99.90
22471;DHT22;11402;51.374;6.594;2023-07-13T03:57:26;16.40;99.90
22471;DHT22;11402;51.374;6.594;2023-07-13T03:59:51;16.40;99.90
22471;DHT22;11402;51.374;6.594;2023-07-13T04:02:17;16.40;99.90
22471;DHT22;11402;51.374;6.594;2023-07-13T04:04:43;16.40;99.90
22471;DHT22;11402;51.374;6.594;2023-07-13T04:07:09;16.40;99.90
22471;DHT22;11402;51.374;6.594;2023-07-13T04:09:35;16.30;99.90
22471;DHT22;11402;51.374;6.594;2023-07-13T04:12:00;16.40;99.90
22471;DHT22;11402;51.374;6.594;2023-07-13T04:14:26;16.50;99.90
22471;DHT22;11402;51.374;6.594;2023-07-13T04:16:52;16.50;99.90
22471;DHT22;11402;51.374;6.594;2023-07-13T04:19:20;16.40;99.90
22471;DHT22;11402;51.374;6.594;2023-07-13T04:21:45;16.50;99.90
22471;DHT22;11402;51.374;6.594;2023-07-13T04:24:11;16.40;99.90
22471;DHT22;11402;51.374;6.594;2023-07-13T04:26:37;16.50;99.90
22471;DHT22;11402;51.374;6.594;2023-07-13T04:29:04;16.50;99.90
22471;DHT22;11402;51.374;6.594;2023-07-13T04:31:30;16.50;99.90
22471;DHT22;11402;51.374;6.594;2023-07-13T04:33:56;16.50;99.90
22471;DHT22;11402;51.374;6.594;2023-07-13T04:36:22;16.60;99.90
22471;DHT22;11402;51.374;6.594;2023-07-13T04:38:48;16.60;99.90
22471;DHT22;11402;51.374;6.594;2023-07-13T04:41:15;16.80;99.90
22471;DHT22;11402;51.374;6.594;2023-07-13T04:43:41;16.70;99.90
22471;DHT22;11402;51.374;6.594;2023-07-13T04:46:11;16.70;99.90
22471;DHT22;11402;51.374;6.594;2023-07-13T04:48:37;16.80;99.90
22471;DHT22;11402;51.374;6.594;2023-07-13T04:51:03;17.00;99.90
22471;DHT22;11402;51.374;6.594;2023-07-13T04:53:30;16.80;99.90
22471;DHT22;11402;51.374;6.594;2023-07-13T04:55:56;17.00;99.90
22471;DHT22;11402;51.374;6.594;2023-07-13T04:58:24;17.10;99.90
22471;DHT22;11402;51.374;6.594;2023-07-13T05:00:51;17.20;99.90
22471;DHT22;11402;51.374;6.594;2023-07-13T05:03:16;17.20;99.90
22471;DHT22;11402;51.374;6.594;2023-07-13T05:05:42;17.20;99.90
22471;DHT22;11402;51.374;6.594;2023-07-13T05:08:07;17.20;99.90
22471;DHT22;11402;51.374;6.594;2023-07-13T05:10:34;17.30;99.90
22471;DHT22;11402;51.374;6.594;2023-07-13T05:13:00;17.30;99.90
22471;DHT22;11402;51.374;6.594;2023-07-13T05:15:26;17.30;99.90
22471;DHT22;11402;51.374;6.594;2023-07-13T05:17:51;17.30;99.90
22471;DHT22;11402;51.374;6.594;2023-07-13T05:20:18;17.30;99.90
22471;DHT22;11402;51.374;6.594;2023-07-13T05:22:44;17.40;99.90
22471;DHT22;11402;51.374;6.594;2023-07-13T05:25:12;17.50;99.90
22471;DHT22;11402;51.374;6.594;2023-07-13T05:27:38;17.60;99.90
22471;DHT22;11402;51.374;6.594;2023-07-13T05:30:04;17.60;99.90
22471;DHT22;11402;51.374;6.594;2023-07-13T05:32:30;17.70;99.90
22471;DHT22;11402;51.374;6.594;2023-07-13T05:34:55;17.90;99.90
22471;DHT22;11402;51.374;6.594;2023-07-13T05:37:21;18.00;99.90
22471;DHT22;11402;51.374;6.594;2023-07-13T05:39:47;18.20;99.90
22471;DHT22;11402;51.374;6.594;2023-07-13T05:42:12;18.20;99.90
22471;DHT22;11402;51.374;6.594;2023-07-13T05:44:38;18.20;99.90
22471;DHT22;11402;51.374;6.594;2023-07-13T05:47:04;18.30;99.90
22471;DHT22;11402;51.374;6.594;2023-07-13T05:49:30;18.30;99.90
22471;DHT22;11402;51.374;6.594;2023-07-13T05:51:56;18.40;99.90
22471;DHT22;11402;51.374;6.594;2023-07-13T05:54:22;18.50;99.90
22471;DHT22;11402;51.374;6.594;2023-07-13T05:56:47;18.50;99.90
22471;DHT22;11402;51.374;6.594;2023-07-13T05:59:13;18.70;99.90
22471;DHT22;11402;51.374;6.594;2023-07-13T06:01:38;18.80;99.90
22471;DHT22;11402;51.374;6.594;2023-07-13T06:04:04;18.90;99.90
22471;DHT22;11402;51.374;6.594;2023-07-13T06:06:30;18.90;99.90
22471;DHT22;11402;51.374;6.594;2023-07-13T06:08:55;19.00;99.90
22471;DHT22;11402;51.374;6.594;2023-07-13T06:11:23;19.00;99.90
22471;DHT22;11402;51.374;6.594;2023-07-13T06:13:49;19.00;99.90
22471;DHT22;11402;51.374;6.594;2023-07-13T06:16:16;18.90;99.90
22471;DHT22;11402;51.374;6.594;2023-07-13T06:18:42;19.00;99.90
22471;DHT22;11402;51.374;6.594;2023-07-13T06:21:10;18.90;99.90
22471;DHT22;11402;51.374;6.594;2023-07-13T06:23:36;19.00;99.90
22471;DHT22;11402;51.374;6.594;2023-07-13T06:26:03;19.00;99.90
22471;DHT22;11402;51.374;6.594;2023-07-13T06:28:29;19.10;99.90
22471;DHT22;11402;51.374;6.594;2023-07-13T06:30:57;19.20;99.90
22471;DHT22;11402;51.374;6.594;2023-07-13T06:33:22;19.20;99.90
22471;DHT22;11402;51.374;6.594;2023-07-13T06:35:48;19.40;99.90
22471;DHT22;11402;51.374;6.594;2023-07-13T06:38:13;19.30;99.90
22471;DHT22;11402;51.374;6.594;2023-07-13T06:40:39;19.30;99.90
22471;DHT22;11402;51.374;6.594;2023-07-13T06:43:04;19.30;99.90
22471;DHT22;11402;51.374;6.594;2023-07-13T06:45:30;19.20;99.90
22471;DHT22;11402;51.374;6.594;2023-07-13T06:47:58;19.20;99.90
22471;DHT22;11402;51.374;6.594;2023-07-13T06:50:23;19.10;99.90
22471;DHT22;11402;51.374;6.594;2023-07-13T06:52:49;19.00;99.90
22471;DHT22;11402;51.374;6.594;2023-07-13T06:55:14;18.90;99.90
22471;DHT22;11402;51.374;6.594;2023-07-13T06:57:40;18.90;99.90
22471;DHT22;11402;51.374;6.594;2023-07-13T07:00:06;19.00;99.90
22471;DHT22;11402;51.374;6.594;2023-07-13T07:02:32;19.00;99.90
22471;DHT22;11402;51.374;6.594;2023-07-13T07:04:57;19.00;99.90
22471;DHT22;11402;51.374;6.594;2023-07-13T07:07:26;19.00;99.90
22471;DHT22;11402;51.374;6.594;2023-07-13T07:09:51;19.20;99.90
22471;DHT22;11402;51.374;6.594;2023-07-13T07:12:17;19.30;99.90
22471;DHT22;11402;51.374;6.594;2023-07-13T07:14:42;19.50;99.90
22471;DHT22;11402;51.374;6.594;2023-07-13T07:17:08;19.60;99.90
22471;DHT22;11402;51.374;6.594;2023-07-13T07:19:35;19.70;99.90
22471;DHT22;11402;51.374;6.594;2023-07-13T07:22:00;19.80;99.90
22471;DHT22;11402;51.374;6.594;2023-07-13T07:24:26;19.60;99.90
22471;DHT22;11402;51.374;6.594;2023-07-13T07:26:52;19.40;99.90
22471;DHT22;11402;51.374;6.594;2023-07-13T07:29:17;19.40;99.90
22471;DHT22;11402;51.374;6.594;2023-07-13T07:31:43;19.50;99.90
22471;DHT22;11402;51.374;6.594;2023-07-13T07:34:08;19.60;99.90
22471;DHT22;11402;51.374;6.594;2023-07-13T07:36:34;19.80;99.90
22471;DHT22;11402;51.374;6.594;2023-07-13T07:39:00;19.80;99.90
22471;DHT22;11402;51.374;6.594;2023-07-13T07:41:25;19.90;99.90
22471;DHT22;11402;51.374;6.594;2023-07-13T07:43:51;19.90;99.90
22471;DHT22;11402;51.374;6.594;2023-07-13T07:46:16;19.90;99.90
22471;DHT22;11402;51.374;6.594;2023-07-13T07:48:42;19.90;99.90
22471;DHT22;11402;51.374;6.594;2023-07-13T07:51:08;20.00;99.90
22471;DHT22;11402;51.374;6.594;2023-07-13T07:53:33;19.90;99.90
22471;DHT22;11402;51.374;6.594;2023-07-13T07:55:59;19.80;99.90
22471;DHT22;11402;51.374;6.594;2023-07-13T07:58:24;19.80;99.90
22471;DHT22;11402;51.374;6.594;2023-07-13T08:00:50;19.80;99.90
22471;DHT22;11402;51.374;6.594;2023-07-13T08:03:15;19.90;99.90
22471;DHT22;11402;51.374;6.594;2023-07-13T08:05:41;20.00;99.90
22471;DHT22;11402;51.374;6.594;2023-07-13T08:08:07;20.30;99.90
22471;DHT22;11402;51.374;6.594;2023-07-13T08:10:35;20.40;99.90
22471;DHT22;11402;51.374;6.594;2023-07-13T08:13:01;20.50;99.90
22471;DHT22;11402;51.374;6.594;2023-07-13T08:15:27;20.60;99.90
22471;DHT22;11402;51.374;6.594;2023-07-13T08:17:53;20.60;99.90
22471;DHT22;11402;51.374;6.594;2023-07-13T08:20:19;20.70;99.90
22471;DHT22;11402;51.374;6.594;2023-07-13T08:22:44;20.70;99.90
22471;DHT22;11402;51.374;6.594;2023-07-13T08:25:10;20.80;99.90
22471;DHT22;11402;51.374;6.594;2023-07-13T08:27:35;20.60;99.90
22471;DHT22;11402;51.374;6.594;2023-07-13T08:30:01;20.60;99.90
22471;DHT22;11402;51.374;6.594;2023-07-13T08:32:27;20.60;99.90
22471;DHT22;11402;51.374;6.594;2023-07-13T08:34:52;20.60;99.90
22471;DHT22;11402;51.374;6.594;2023-07-13T08:37:19;20.70;99.90
22471;DHT22;11402;51.374;6.594;2023-07-13T08:39:46;20.80;99.90
22471;DHT22;11402;51.374;6.594;2023-07-13T08:47:39;20.60;99.90
22471;DHT22;11402;51.374;6.594;2023-07-13T08:50:13;20.40;99.90
22471;DHT22;11402;51.374;6.594;2023-07-13T08:52:42;20.40;99.90
22471;DHT22;11402;51.374;6.594;2023-07-13T08:55:18;20.30;99.90
22471;DHT22;11402;51.374;6.594;2023-07-13T08:57:48;20.40;99.90
22471;DHT22;11402;51.374;6.594;2023-07-13T09:00:15;20.70;99.90
22471;DHT22;11402;51.374;6.594;2023-07-13T09:02:58;20.80;99.90
22471;DHT22;11402;51.374;6.594;2023-07-13T09:05:37;20.80;99.90
22471;DHT22;11402;51.374;6.594;2023-07-13T09:10:58;20.80;99.90
22471;DHT22;11402;51.374;6.594;2023-07-13T09:13:43;21.00;99.90
22471;DHT22;11402;51.374;6.594;2023-07-13T09:16:13;21.20;99.90
22471;DHT22;11402;51.374;6.594;2023-07-13T09:18:44;21.30;99.90
22471;DHT22;11402;51.374;6.594;2023-07-13T09:21:21;21.60;99.90
22471;DHT22;11402;51.374;6.594;2023-07-13T09:23:49;21.80;99.90
22471;DHT22;11402;51.374;6.594;2023-07-13T09:26:21;21.70;99.90
22471;DHT22;11402;51.374;6.594;2023-07-13T09:29:21;21.60;99.90
22471;DHT22;11402;51.374;6.594;2023-07-13T09:31:52;21.50;99.90
22471;DHT22;11402;51.374;6.594;2023-07-13T09:34:18;21.40;99.90
22471;DHT22;11402;51.374;6.594;2023-07-13T09:36:44;21.10;99.90
22471;DHT22;11402;51.374;6.594;2023-07-13T09:39:29;21.20;99.90
22471;DHT22;11402;51.374;6.594;2023-07-13T09:42:15;21.20;99.90
22471;DHT22;11402;51.374;6.594;2023-07-13T09:44:58;21.40;99.90
22471;DHT22;11402;51.374;6.594;2023-07-13T09:47:25;21.60;99.90
22471;DHT22;11402;51.374;6.594;2023-07-13T09:49:59;21.90;99.90
22471;DHT22;11402;51.374;6.594;2023-07-13T09:52:26;22.00;99.90
22471;DHT22;11402;51.374;6.594;2023-07-13T09:54:54;22.00;99.90
22471;DHT22;11402;51.374;6.594;2023-07-13T09:57:25;22.00;99.90
22471;DHT22;11402;51.374;6.594;2023-07-13T09:59:53;22.10;99.90
22471;DHT22;11402;51.374;6.594;2023-07-13T10:02:30;22.20;99.90
22471;DHT22;11402;51.374;6.594;2023-07-13T10:05:07;22.40;99.90
22471;DHT22;11402;51.374;6.594;2023-07-13T10:07:39;22.40;99.90
22471;DHT22;11402;51.374;6.594;2023-07-13T10:10:15;22.40;99.90
22471;DHT22;11402;51.374;6.594;2023-07-13T10:12:40;22.40;99.90
22471;DHT22;11402;51.374;6.594;2023-07-13T10:15:26;22.70;99.90
22471;DHT22;11402;51.374;6.594;2023-07-13T10:21:20;23.00;99.90
22471;DHT22;11402;51.374;6.594;2023-07-13T10:23:54;22.90;99.90
22471;DHT22;11402;51.374;6.594;2023-07-13T10:26:27;22.80;99.90
22471;DHT22;11402;51.374;6.594;2023-07-13T10:28:59;23.10;99.90
22471;DHT22;11402;51.374;6.594;2023-07-13T10:31:26;23.20;99.90
22471;DHT22;11402;51.374;6.594;2023-07-13T10:33:52;23.30;99.90
22471;DHT22;11402;51.374;6.594;2023-07-13T10:36:23;23.10;99.90
22471;DHT22;11402;51.374;6.594;2023-07-13T10:38:55;23.20;99.90
22471;DHT22;11402;51.374;6.594;2023-07-13T10:41:24;23.10;99.90
22471;DHT22;11402;51.374;6.594;2023-07-13T10:46:28;22.80;99.90
22471;DHT22;11402;51.374;6.594;2023-07-13T10:48:58;22.70;99.90
22471;DHT22;11402;51.374;6.594;2023-07-13T10:51:25;22.60;99.90
22471;DHT22;11402;51.374;6.594;2023-07-13T10:54:11;22.40;99.90
22471;DHT22;11402;51.374;6.594;2023-07-13T10:56:38;22.50;99.90
22471;DHT22;11402;51.374;6.594;2023-07-13T10:59:23;22.50;99.90
22471;DHT22;11402;51.374;6.594;2023-07-13T11:01:56;22.60;99.90
22471;DHT22;11402;51.374;6.594;2023-07-13T11:04:24;22.90;99.90
22471;DHT22;11402;51.374;6.594;2023-07-13T11:06:56;23.00;99.90
22471;DHT22;11402;51.374;6.594;2023-07-13T11:09:37;23.00;99.90
22471;DHT22;11402;51.374;6.594;2023-07-13T11:19:53;22.80;99.90
22471;DHT22;11402;51.374;6.594;2023-07-13T11:22:24;22.70;99.90
22471;DHT22;11402;51.374;6.594;2023-07-13T11:25:00;23.00;99.90
22471;DHT22;11402;51.374;6.594;2023-07-13T11:27:45;23.00;99.90
22471;DHT22;11402;51.374;6.594;2023-07-13T11:33:11;23.10;99.90
22471;DHT22;11402;51.374;6.594;2023-07-13T11:35:45;23.40;99.90
22471;DHT22;11402;51.374;6.594;2023-07-13T11:38:27;23.40;99.90
22471;DHT22;11402;51.374;6.594;2023-07-13T11:40:54;23.50;99.90
22471;DHT22;11402;51.374;6.594;2023-07-13T11:43:20;23.50;99.90
22471;DHT22;11402;51.374;6.594;2023-07-13T11:45:49;23.40;99.90
22471;DHT22;11402;51.374;6.594;2023-07-13T11:50:54;23.40;99.90
22471;DHT22;11402;51.374;6.594;2023-07-13T11:53:21;23.40;99.90
22471;DHT22;11402;51.374;6.594;2023-07-13T11:55:48;23.30;99.90
22471;DHT22;11402;51.374;6.594;2023-07-13T11:58:19;23.30;99.90
22471;DHT22;11402;51.374;6.594;2023-07-13T12:00:46;23.50;99.90
22471;DHT22;11402;51.374;6.594;2023-07-13T12:03:13;23.70;99.90
22471;DHT22;11402;51.374;6.594;2023-07-13T12:05:56;23.80;99.90
22471;DHT22;11402;51.374;6.594;2023-07-13T12:08:23;24.00;99.90
22471;DHT22;11402;51.374;6.594;2023-07-13T12:11:00;23.80;99.90
22471;DHT22;11402;51.374;6.594;2023-07-13T12:13:27;23.70;99.90
22471;DHT22;11402;51.374;6.594;2023-07-13T12:15:54;23.60;99.90
22471;DHT22;11402;51.374;6.594;2023-07-13T12:18:23;23.60;99.90
22471;DHT22;11402;51.374;6.594;2023-07-13T12:20:57;23.60;99.90
22471;DHT22;11402;51.374;6.594;2023-07-13T12:23:31;23.40;99.90
22471;DHT22;11402;51.374;6.594;2023-07-13T12:25:59;23.70;99.90
22471;DHT22;11402;51.374;6.594;2023-07-13T12:28:38;23.90;99.90
22471;DHT22;11402;51.374;6.594;2023-07-13T12:31:07;23.80;99.90
22471;DHT22;11402;51.374;6.594;2023-07-13T12:33:33;23.50;99.90
22471;DHT22;11402;51.374;6.594;2023-07-13T12:36:02;23.30;99.90
22471;DHT22;11402;51.374;6.594;2023-07-13T12:38:29;23.20;99.90
22471;DHT22;11402;51.374;6.594;2023-07-13T12:40:55;23.10;99.90
22471;DHT22;11402;51.374;6.594;2023-07-13T12:43:22;23.10;99.90
22471;DHT22;11402;51.374;6.594;2023-07-13T12:46:21;22.80;99.90
22471;DHT22;11402;51.374;6.594;2023-07-13T12:48:51;22.40;99.90
22471;DHT22;11402;51.374;6.594;2023-07-13T12:51:20;22.40;99.90
22471;DHT22;11402;51.374;6.594;2023-07-13T12:54:05;22.50;99.90
22471;DHT22;11402;51.374;6.594;2023-07-13T12:56:33;22.70;99.90
22471;DHT22;11402;51.374;6.594;2023-07-13T12:59:02;22.80;99.90
22471;DHT22;11402;51.374;6.594;2023-07-13T13:01:31;22.80;99.90
22471;DHT22;11402;51.374;6.594;2023-07-13T13:04:01;22.90;99.90
22471;DHT22;11402;51.374;6.594;2023-07-13T13:06:32;23.50;99.90
22471;DHT22;11402;51.374;6.594;2023-07-13T13:08:59;23.80;99.90
22471;DHT22;11402;51.374;6.594;2023-07-13T13:11:27;23.80;99.90
22471;DHT22;11402;51.374;6.594;2023-07-13T13:13:53;23.90;99.90
22471;DHT22;11402;51.374;6.594;2023-07-13T13:16:31;24.10;99.90
22471;DHT22;11402;51.374;6.594;2023-07-13T13:19:13;23.80;99.90
22471;DHT22;11402;51.374;6.594;2023-07-13T13:21:39;23.70;99.90
22471;DHT22;11402;51.374;6.594;2023-07-13T13:24:16;23.80;99.90
22471;DHT22;11402;51.374;6.594;2023-07-13T13:26:43;23.50;99.90
22471;DHT22;11402;51.374;6.594;2023-07-13T13:29:13;23.50;99.90
22471;DHT22;11402;51.374;6.594;2023-07-13T13:31:39;23.30;99.90
22471;DHT22;11402;51.374;6.594;2023-07-13T13:34:08;23.60;99.90
22471;DHT22;11402;51.374;6.594;2023-07-13T13:36:34;23.80;99.90
22471;DHT22;11402;51.374;6.594;2023-07-13T13:39:00;23.90;99.90
22471;DHT22;11402;51.374;6.594;2023-07-13T13:41:27;23.90;99.90
22471;DHT22;11402;51.374;6.594;2023-07-13T13:43:53;23.90;99.90
22471;DHT22;11402;51.374;6.594;2023-07-13T13:46:22;24.00;99.90
22471;DHT22;11402;51.374;6.594;2023-07-13T13:48:50;24.00;99.90
22471;DHT22;11402;51.374;6.594;2023-07-13T13:51:18;23.90;99.90
22471;DHT22;11402;51.374;6.594;2023-07-13T13:53:45;24.00;99.90
22471;DHT22;11402;51.374;6.594;2023-07-13T13:56:11;24.10;99.90
22471;DHT22;11402;51.374;6.594;2023-07-13T13:58:37;23.90;99.90
22471;DHT22;11402;51.374;6.594;2023-07-13T14:01:03;23.80;99.90
22471;DHT22;11402;51.374;6.594;2023-07-13T14:05:57;23.50;99.90
22471;DHT22;11402;51.374;6.594;2023-07-13T14:08:23;23.70;99.90
22471;DHT22;11402;51.374;6.594;2023-07-13T14:10:51;23.70;99.90
22471;DHT22;11402;51.374;6.594;2023-07-13T14:13:24;24.00;99.90
22471;DHT22;11402;51.374;6.594;2023-07-13T14:15:54;24.10;99.90
22471;DHT22;11402;51.374;6.594;2023-07-13T14:18:20;24.30;99.90
22471;DHT22;11402;51.374;6.594;2023-07-13T14:20:47;24.30;99.90
22471;DHT22;11402;51.374;6.594;2023-07-13T14:23:14;24.30;99.90
22471;DHT22;11402;51.374;6.594;2023-07-13T14:25:43;24.30;99.90
22471;DHT22;11402;51.374;6.594;2023-07-13T14:28:25;24.10;99.90
22471;DHT22;11402;51.374;6.594;2023-07-13T14:30:52;23.90;99.90
22471;DHT22;11402;51.374;6.594;2023-07-13T14:33:18;23.40;99.90
22471;DHT22;11402;51.374;6.594;2023-07-13T14:35:44;23.00;99.90
22471;DHT22;11402;51.374;6.594;2023-07-13T14:38:17;22.90;99.90
22471;DHT22;11402;51.374;6.594;2023-07-13T14:40:44;22.80;99.90
22471;DHT22;11402;51.374;6.594;2023-07-13T14:43:11;22.80;99.90
22471;DHT22;11402;51.374;6.594;2023-07-13T14:45:45;22.90;99.90
22471;DHT22;11402;51.374;6.594;2023-07-13T14:48:18;22.80;99.90
22471;DHT22;11402;51.374;6.594;2023-07-13T14:50:44;22.40;99.90
22471;DHT22;11402;51.374;6.594;2023-07-13T14:53:12;22.40;99.90
22471;DHT22;11402;51.374;6.594;2023-07-13T14:55:38;22.10;99.90
22471;DHT22;11402;51.374;6.594;2023-07-13T14:58:04;21.60;99.90
22471;DHT22;11402;51.374;6.594;2023-07-13T15:00:30;21.50;99.90
22471;DHT22;11402;51.374;6.594;2023-07-13T15:02:57;21.20;99.90
22471;DHT22;11402;51.374;6.594;2023-07-13T15:05:28;21.20;99.90
22471;DHT22;11402;51.374;6.594;2023-07-13T15:07:58;21.20;99.90
22471;DHT22;11402;51.374;6.594;2023-07-13T15:10:27;21.20;99.90
22471;DHT22;11402;51.374;6.594;2023-07-13T15:12:56;20.80;99.90
22471;DHT22;11402;51.374;6.594;2023-07-13T15:15:23;20.50;99.90
22471;DHT22;11402;51.374;6.594;2023-07-13T15:17:49;20.20;99.90
22471;DHT22;11402;51.374;6.594;2023-07-13T15:20:30;20.50;99.90
22471;DHT22;11402;51.374;6.594;2023-07-13T15:22:57;20.50;99.90
22471;DHT22;11402;51.374;6.594;2023-07-13T15:25:25;20.60;99.90
22471;DHT22;11402;51.374;6.594;2023-07-13T15:27:53;20.70;99.90
22471;DHT22;11402;51.374;6.594;2023-07-13T15:30:29;20.90;99.90
22471;DHT22;11402;51.374;6.594;2023-07-13T15:32:57;21.00;99.90
22471;DHT22;11402;51.374;6.594;2023-07-13T15:35:26;21.10;99.90
22471;DHT22;11402;51.374;6.594;2023-07-13T15:37:52;21.10;99.90
22471;DHT22;11402;51.374;6.594;2023-07-13T15:40:19;21.10;99.90
22471;DHT22;11402;51.374;6.594;2023-07-13T15:42:47;21.00;99.90
22471;DHT22;11402;51.374;6.594;2023-07-13T15:45:21;21.10;99.90
22471;DHT22;11402;51.374;6.594;2023-07-13T15:47:48;21.00;99.90
22471;DHT22;11402;51.374;6.594;2023-07-13T15:50:16;20.90;99.90
22471;DHT22;11402;51.374;6.594;2023-07-13T15:52:43;20.80;99.90
22471;DHT22;11402;51.374;6.594;2023-07-13T15:55:14;20.80;99.90
22471;DHT22;11402;51.374;6.594;2023-07-13T15:57:46;21.10;99.90
22471;DHT22;11402;51.374;6.594;2023-07-13T16:00:14;21.10;99.90
22471;DHT22;11402;51.374;6.594;2023-07-13T16:02:41;21.10;99.90
22471;DHT22;11402;51.374;6.594;2023-07-13T16:05:07;21.20;99.90